Viola, Minnesota
Current Conditions -  °F | °C
As of 4:13 AM on Sunday 25 Jan 2015 (Local Time) from K9MN Reporting Station
Overcast Overcast  
Wind Chill: 25°   Ceiling: 900
Heat Index: 33°   Visibility: 10mi
Dew Point: 29°   Wind: 10mph
Humidity: 86%   Direction: 20°NNE
Pressure: 29.72"   Gusts: 22mph
Location:  44.0209°N, 92.2585°W
Report Text: K9MN 251013Z AUTO 02009G19KT 340V070 10SM OVC009 01/M02 A2972 RMK AO1 T00051016
Loading
Personal Weather Stations






























Interactive Weather Map New forecast layout! Learn more

10-Day Weather Forecast

Advertisements
Track Severe Weather on mobile